Time;durP1;ratioP1;P1;durP2;ratioP2;P2;SDS_P1;SDS_P2;PMS_P1;PMS_P2;Temp;Humidity;BMP_temperature;BMP_pressure;BME280_temperature;BME280_humidity;BME280_pressure;Samples;Min_cycle;Max_cycle;Signal;HPM_P1;HPM_P2
2021/09/20 00:01:05;;;;;;;7.75;1.40;;;20.00;96.70;;;;;;4901172;29;20078;-74
2021/09/20 00:03:35;;;;;;;9.70;1.30;;;20.00;96.70;;;;;;4891767;29;20059;-73
2021/09/20 00:06:04;;;;;;;6.43;1.30;;;20.00;96.70;;;;;;4912500;29;20052;-73
2021/09/20 00:08:32;;;;;;;7.22;1.63;;;19.90;96.70;;;;;;4905367;29;20056;-74
2021/09/20 00:11:00;;;;;;;9.57;1.48;;;19.90;96.70;;;;;;4904735;29;20467;-73
2021/09/20 00:13:28;;;;;;;9.38;1.80;;;19.90;96.70;;;;;;4919934;29;20044;-75
2021/09/20 00:15:56;;;;;;;5.80;1.10;;;19.90;96.70;;;;;;4920771;29;20052;-75
2021/09/20 00:18:24;;;;;;;6.57;1.40;;;20.00;96.70;;;;;;4903298;29;20562;-75
2021/09/20 00:20:53;;;;;;;8.52;1.58;;;19.90;96.70;;;;;;4905920;29;20498;-75
2021/09/20 00:23:21;;;;;;;6.10;1.10;;;20.00;96.70;;;;;;4916419;29;20060;-76
2021/09/20 00:25:50;;;;;;;8.05;1.27;;;19.90;96.70;;;;;;4914563;29;20047;-76
2021/09/20 00:28:19;;;;;;;10.32;1.70;;;19.90;96.70;;;;;;4909202;29;20423;-76
2021/09/20 00:30:46;;;;;;;9.75;1.90;;;19.90;96.70;;;;;;4907981;29;20467;-74
2021/09/20 00:33:14;;;;;;;7.88;1.05;;;19.90;96.70;;;;;;4908154;29;20036;-75
2021/09/20 00:35:42;;;;;;;6.25;1.40;;;19.90;96.70;;;;;;4909094;29;20032;-75
2021/09/20 00:38:12;;;;;;;5.75;1.27;;;20.00;96.70;;;;;;4907086;29;20046;-75
2021/09/20 00:40:48;;;;;;;8.80;1.60;;;19.90;96.70;;;;;;4890294;29;20041;-75
2021/09/20 00:43:17;;;;;;;5.93;1.27;;;19.90;96.70;;;;;;4911093;29;20048;-75
2021/09/20 00:45:44;;;;;;;10.02;1.58;;;19.80;96.70;;;;;;4908806;29;20517;-74
2021/09/20 00:48:13;;;;;;;9.65;1.48;;;19.70;96.70;;;;;;4907421;29;20123;-75
2021/09/20 00:50:41;;;;;;;7.15;1.60;;;19.70;96.70;;;;;;4910338;29;20064;-75
2021/09/20 00:53:11;;;;;;;8.50;1.50;;;19.70;96.70;;;;;;4919508;29;20466;-75
2021/09/20 00:55:40;;;;;;;7.05;1.10;;;19.70;96.70;;;;;;4900582;29;20052;-75
2021/09/20 00:58:09;;;;;;;6.22;1.20;;;19.70;96.70;;;;;;4906343;29;20143;-75
2021/09/20 01:00:37;;;;;;;7.03;1.40;;;19.70;96.70;;;;;;4908984;29;20089;-75
2021/09/20 01:03:06;;;;;;;7.65;1.65;;;19.60;96.70;;;;;;4908369;29;20052;-75
2021/09/20 01:05:34;;;;;;;8.65;1.70;;;19.50;96.70;;;;;;4909502;29;20048;-76
2021/09/20 01:08:03;;;;;;;5.18;1.63;;;19.50;96.70;;;;;;4906220;29;20528;-75
2021/09/20 01:10:33;;;;;;;7.72;1.50;;;19.50;96.70;;;;;;4919092;29;20041;-75
2021/09/20 01:13:01;;;;;;;5.78;1.80;;;19.40;96.70;;;;;;4907369;29;20050;-75
2021/09/20 01:15:30;;;;;;;6.35;1.23;;;19.40;96.70;;;;;;4909930;29;20063;-75
2021/09/20 01:17:58;;;;;;;6.40;1.10;;;19.40;96.70;;;;;;4906513;29;20173;-75
2021/09/20 01:20:26;;;;;;;7.70;1.48;;;19.50;96.70;;;;;;4908336;29;20422;-75
2021/09/20 01:23:00;;;;;;;6.00;1.63;;;19.50;96.70;;;;;;4908628;29;20516;-75
2021/09/20 01:25:30;;;;;;;3.88;1.30;;;19.50;96.70;;;;;;4915862;29;20063;-75
2021/09/20 01:27:58;;;;;;;7.15;1.33;;;19.50;96.70;;;;;;4906562;29;20095;-76
2021/09/20 01:30:27;;;;;;;9.55;1.48;;;19.50;96.70;;;;;;4922660;29;20127;-75
2021/09/20 01:32:55;;;;;;;5.00;1.33;;;19.50;96.70;;;;;;4916973;29;20044;-76
2021/09/20 01:35:25;;;;;;;9.75;1.70;;;19.50;96.70;;;;;;4907390;29;20044;-76
2021/09/20 01:37:54;;;;;;;4.32;1.25;;;19.50;96.70;;;;;;4916045;29;20044;-75
2021/09/20 01:40:24;;;;;;;6.45;1.20;;;19.30;96.70;;;;;;4918736;29;20463;-75
2021/09/20 01:42:52;;;;;;;6.78;1.40;;;19.30;96.70;;;;;;4908070;29;20044;-76
2021/09/20 01:45:23;;;;;;;6.60;1.02;;;19.40;96.70;;;;;;4906060;29;20526;-75
2021/09/20 01:47:52;;;;;;;5.60;1.25;;;19.50;96.70;;;;;;4908766;29;20052;-75
2021/09/20 01:50:20;;;;;;;5.05;1.50;;;19.30;96.70;;;;;;4916906;29;20052;-76
2021/09/20 01:52:50;;;;;;;4.47;1.10;;;19.30;96.70;;;;;;4906179;29;20426;-75
2021/09/20 01:55:18;;;;;;;5.35;1.42;;;19.20;96.70;;;;;;4903243;29;20040;-75
2021/09/20 01:57:48;;;;;;;4.97;1.38;;;19.20;96.70;;;;;;4904291;29;20462;-75
2021/09/20 02:00:18;;;;;;;3.85;1.20;;;19.10;96.70;;;;;;4906786;29;20584;-76
2021/09/20 02:02:47;;;;;;;5.45;1.25;;;19.10;96.70;;;;;;4906627;29;20146;-75
2021/09/20 02:05:15;;;;;;;5.70;1.48;;;19.10;96.70;;;;;;4905851;29;20149;-76
2021/09/20 02:07:44;;;;;;;6.85;1.70;;;19.10;96.70;;;;;;4906038;29;20437;-76
2021/09/20 02:10:15;;;;;;;5.97;1.27;;;19.00;96.70;;;;;;4904891;29;20183;-76
2021/09/20 02:12:44;;;;;;;8.48;1.80;;;19.00;96.70;;;;;;4901070;29;20052;-76
2021/09/20 02:15:14;;;;;;;7.88;1.60;;;19.00;96.70;;;;;;4905127;29;20036;-76
2021/09/20 02:17:43;;;;;;;5.72;1.45;;;19.00;96.70;;;;;;4908204;29;20044;-76
2021/09/20 02:20:13;;;;;;;7.40;1.42;;;19.10;96.70;;;;;;4907500;29;20047;-76
2021/09/20 02:22:41;;;;;;;10.20;2.03;;;19.10;96.70;;;;;;4905896;29;20494;-75
2021/09/20 02:25:11;;;;;;;4.53;1.38;;;19.10;96.70;;;;;;4919171;29;20127;-76
2021/09/20 02:27:39;;;;;;;6.90;1.25;;;19.20;96.70;;;;;;4910479;29;20147;-75
2021/09/20 02:30:09;;;;;;;3.50;1.00;;;19.30;96.70;;;;;;4906255;29;20051;-75
2021/09/20 02:32:39;;;;;;;5.80;1.10;;;19.20;96.70;;;;;;4889455;29;20111;-75
2021/09/20 02:35:09;;;;;;;5.43;1.27;;;19.20;96.70;;;;;;4906676;29;20055;-75
2021/09/20 02:37:37;;;;;;;4.05;1.10;;;19.20;96.70;;;;;;4907209;29;20420;-75
2021/09/20 02:40:08;;;;;;;4.43;1.60;;;19.20;96.70;;;;;;4906214;29;20060;-76
2021/09/20 02:42:37;;;;;;;7.80;1.83;;;19.10;96.70;;;;;;4885726;29;20568;-75
2021/09/20 02:45:07;;;;;;;5.95;1.55;;;19.10;96.70;;;;;;4921841;29;20142;-76
2021/09/20 02:47:38;;;;;;;7.45;1.58;;;19.10;96.70;;;;;;4914305;29;20052;-76
2021/09/20 02:50:09;;;;;;;5.68;1.30;;;19.10;96.70;;;;;;4905694;29;20052;-75
2021/09/20 02:52:37;;;;;;;4.60;1.40;;;19.20;96.70;;;;;;4920226;29;20513;-75
2021/09/20 02:55:08;;;;;;;5.57;1.17;;;19.20;96.70;;;;;;4905752;29;20067;-75
2021/09/20 02:57:37;;;;;;;6.57;1.30;;;19.20;96.70;;;;;;4906210;29;20048;-75
2021/09/20 03:00:08;;;;;;;6.60;1.35;;;19.20;96.70;;;;;;4907257;29;20052;-75
2021/09/20 03:02:38;;;;;;;8.70;1.80;;;19.20;96.70;;;;;;4906129;29;20131;-75
2021/09/20 03:05:08;;;;;;;6.93;1.95;;;19.30;96.70;;;;;;4906793;29;20546;-75
2021/09/20 03:07:37;;;;;;;5.70;1.27;;;19.30;96.70;;;;;;4905854;29;20064;-74
2021/09/20 03:10:08;;;;;;;7.75;1.92;;;19.30;96.70;;;;;;4899384;29;20052;-75
2021/09/20 03:12:37;;;;;;;4.28;1.65;;;19.40;96.70;;;;;;4905250;29;20070;-75
2021/09/20 03:15:06;;;;;;;4.15;1.25;;;19.40;96.70;;;;;;4910304;29;20052;-75
2021/09/20 03:17:35;;;;;;;6.97;1.77;;;19.40;96.70;;;;;;4908956;29;20083;-75
2021/09/20 03:20:07;;;;;;;5.72;1.15;;;19.40;96.70;;;;;;4917478;29;20533;-75
2021/09/20 03:22:36;;;;;;;5.95;0.98;;;19.30;96.70;;;;;;4923447;29;20532;-75
2021/09/20 03:25:05;;;;;;;4.10;0.90;;;19.40;96.70;;;;;;4911992;29;20056;-75
2021/09/20 03:27:34;;;;;;;8.82;1.27;;;19.40;96.70;;;;;;4906361;29;20048;-75
2021/09/20 03:30:05;;;;;;;3.92;0.90;;;19.40;96.70;;;;;;4906648;29;20036;-75
2021/09/20 03:32:33;;;;;;;8.85;1.30;;;19.50;96.70;;;;;;4903797;29;20119;-75
2021/09/20 03:35:03;;;;;;;7.95;1.10;;;19.60;96.70;;;;;;4906081;29;20463;-75
2021/09/20 03:37:33;;;;;;;5.43;1.48;;;19.40;96.70;;;;;;4904304;29;20339;-75
2021/09/20 03:40:03;;;;;;;6.60;1.60;;;19.40;96.70;;;;;;4906856;29;20056;-76
2021/09/20 03:42:31;;;;;;;6.88;1.27;;;19.40;96.70;;;;;;4906172;29;20048;-75
2021/09/20 03:45:00;;;;;;;5.03;1.08;;;19.30;96.70;;;;;;4906598;29;20048;-75
2021/09/20 03:47:29;;;;;;;5.50;1.58;;;19.30;96.70;;;;;;4902515;29;20798;-75
2021/09/20 03:49:57;;;;;;;11.05;1.75;;;19.40;96.70;;;;;;4900417;29;20048;-75
2021/09/20 03:52:26;;;;;;;6.20;1.10;;;19.30;96.70;;;;;;4905420;29;20162;-76
2021/09/20 03:54:56;;;;;;;4.07;0.82;;;19.30;96.70;;;;;;4903228;29;20055;-75
2021/09/20 03:57:25;;;;;;;6.85;1.35;;;19.10;96.70;;;;;;4906234;29;20051;-75
2021/09/20 03:59:53;;;;;;;4.82;1.10;;;19.10;96.70;;;;;;4903300;29;20044;-75
2021/09/20 04:02:22;;;;;;;10.20;1.88;;;19.20;96.70;;;;;;4909260;29;20048;-75
2021/09/20 04:04:50;;;;;;;3.78;1.10;;;19.10;96.70;;;;;;4907517;29;20064;-75
2021/09/20 04:07:19;;;;;;;7.50;1.25;;;19.10;96.70;;;;;;4922769;29;20063;-75
2021/09/20 04:09:48;;;;;;;8.93;1.10;;;19.00;96.70;;;;;;4907592;29;20056;-75
2021/09/20 04:12:18;;;;;;;3.50;0.88;;;19.00;96.70;;;;;;4910644;29;20117;-75
2021/09/20 04:14:46;;;;;;;4.70;1.00;;;19.10;96.70;;;;;;4907841;29;20056;-75
2021/09/20 04:17:15;;;;;;;6.10;1.00;;;19.20;96.70;;;;;;4909144;29;20506;-75
2021/09/20 04:19:44;;;;;;;5.35;1.10;;;19.10;96.70;;;;;;4918585;29;20075;-75
2021/09/20 04:22:12;;;;;;;7.78;1.77;;;19.10;96.70;;;;;;4908449;29;20043;-75
2021/09/20 04:24:41;;;;;;;5.68;1.85;;;19.00;96.70;;;;;;4921244;29;20099;-75
2021/09/20 04:27:09;;;;;;;7.40;1.58;;;19.00;96.70;;;;;;4910156;29;20569;-76
2021/09/20 04:29:39;;;;;;;4.30;1.02;;;19.00;96.70;;;;;;4904844;29;20044;-75
2021/09/20 04:32:07;;;;;;;4.65;1.05;;;18.90;96.70;;;;;;4903089;29;20040;-75
2021/09/20 04:34:36;;;;;;;3.88;1.02;;;18.90;96.70;;;;;;4906974;29;20075;-75
2021/09/20 04:37:04;;;;;;;7.68;1.40;;;18.90;96.70;;;;;;4908518;29;20410;-75
2021/09/20 04:39:33;;;;;;;4.13;1.23;;;18.80;96.70;;;;;;4907974;29;20577;-75
2021/09/20 04:42:02;;;;;;;6.85;3.05;;;18.70;96.70;;;;;;4908517;29;20487;-75
2021/09/20 04:44:31;;;;;;;12.52;5.18;;;18.70;96.70;;;;;;4907756;29;20048;-74
2021/09/20 04:47:01;;;;;;;8.40;4.43;;;18.70;96.70;;;;;;4908199;29;20050;-75
2021/09/20 04:49:30;;;;;;;7.53;3.08;;;18.80;96.70;;;;;;4904691;29;20044;-75
2021/09/20 04:51:58;;;;;;;6.07;1.88;;;18.70;96.70;;;;;;4909019;29;20044;-75
2021/09/20 04:54:27;;;;;;;6.20;1.45;;;18.70;96.70;;;;;;4909576;29;20048;-75
2021/09/20 04:56:55;;;;;;;5.75;1.27;;;18.70;96.70;;;;;;4906652;29;20597;-75
2021/09/20 04:59:24;;;;;;;4.30;1.05;;;18.70;96.70;;;;;;4908431;29;20079;-76
2021/09/20 05:01:52;;;;;;;6.05;1.23;;;18.70;96.70;;;;;;4906567;29;20060;-75
2021/09/20 05:04:22;;;;;;;6.50;1.40;;;18.70;96.70;;;;;;4907249;29;20475;-76
2021/09/20 05:06:51;;;;;;;7.00;1.05;;;18.70;96.70;;;;;;4906061;29;20434;-76
2021/09/20 05:09:19;;;;;;;4.03;0.90;;;18.60;96.70;;;;;;4906092;29;20056;-76
2021/09/20 05:11:48;;;;;;;4.28;1.13;;;18.60;96.70;;;;;;4903680;29;20052;-76
2021/09/20 05:14:16;;;;;;;6.13;1.25;;;18.60;96.70;;;;;;4908317;29;20420;-76
2021/09/20 05:16:45;;;;;;;4.70;0.90;;;18.60;96.70;;;;;;4923346;29;20048;-75
2021/09/20 05:19:14;;;;;;;7.40;1.20;;;18.60;96.70;;;;;;4908968;29;20075;-75
2021/09/20 05:21:44;;;;;;;8.98;1.50;;;18.60;96.70;;;;;;4915256;29;20040;-75
2021/09/20 05:24:12;;;;;;;6.20;1.08;;;18.70;96.70;;;;;;4907892;29;20055;-76
2021/09/20 05:26:41;;;;;;;6.38;1.35;;;18.70;96.70;;;;;;4906144;29;20058;-76
2021/09/20 05:29:09;;;;;;;4.85;1.20;;;18.70;96.70;;;;;;4905860;29;20100;-76
2021/09/20 05:31:42;;;;;;;4.35;1.27;;;18.70;96.70;;;;;;4907100;29;20146;-76
2021/09/20 05:34:10;;;;;;;6.57;1.33;;;18.70;96.70;;;;;;4909019;29;20128;-76
2021/09/20 05:36:38;;;;;;;6.32;1.30;;;18.70;96.70;;;;;;4905571;29;20028;-76
2021/09/20 05:39:08;;;;;;;6.07;1.30;;;18.90;96.70;;;;;;4899588;29;20056;-75
2021/09/20 05:41:36;;;;;;;5.05;1.15;;;19.00;96.70;;;;;;4902597;29;20056;-76
2021/09/20 05:44:05;;;;;;;6.13;1.38;;;19.00;96.70;;;;;;4908929;29;20546;-76
2021/09/20 05:46:33;;;;;;;4.90;1.20;;;18.90;96.70;;;;;;4890454;29;20563;-75
2021/09/20 05:49:01;;;;;;;6.18;2.15;;;18.90;96.70;;;;;;4905072;29;20044;-75
2021/09/20 05:51:29;;;;;;;8.80;1.70;;;18.90;96.70;;;;;;4907696;29;20063;-76
2021/09/20 05:53:58;;;;;;;3.92;1.15;;;19.00;96.70;;;;;;4908543;29;20048;-76
2021/09/20 05:56:27;;;;;;;4.05;1.08;;;19.00;96.70;;;;;;4907797;29;20534;-75
2021/09/20 05:58:55;;;;;;;8.75;1.40;;;19.00;96.70;;;;;;4905089;29;20152;-75
2021/09/20 06:01:23;;;;;;;8.35;1.20;;;19.10;96.70;;;;;;4907779;29;20342;-75
2021/09/20 06:03:52;;;;;;;8.48;1.38;;;19.10;96.70;;;;;;4908067;29;20103;-75
2021/09/20 06:06:20;;;;;;;8.27;1.45;;;19.10;96.70;;;;;;4905730;29;20044;-76
2021/09/20 06:08:49;;;;;;;6.32;1.35;;;19.10;96.70;;;;;;4907244;29;20083;-76
2021/09/20 06:11:18;;;;;;;8.85;1.55;;;19.10;96.70;;;;;;4903285;29;20068;-76
2021/09/20 06:13:48;;;;;;;4.82;1.40;;;19.10;96.70;;;;;;4921699;29;20057;-76
2021/09/20 06:16:16;;;;;;;5.13;1.10;;;19.10;96.70;;;;;;4905791;29;20047;-76
2021/09/20 06:18:44;;;;;;;9.30;1.50;;;19.20;96.70;;;;;;4906153;29;20075;-76
2021/09/20 06:21:12;;;;;;;6.05;1.48;;;19.30;96.70;;;;;;4919079;29;20052;-75
2021/09/20 06:23:40;;;;;;;5.47;2.10;;;19.30;96.70;;;;;;4907823;29;20036;-76
2021/09/20 06:26:08;;;;;;;7.72;2.78;;;19.40;96.70;;;;;;4907382;29;20394;-76
2021/09/20 06:28:37;;;;;;;9.50;3.75;;;19.50;96.70;;;;;;4905085;29;20043;-76
2021/09/20 06:31:06;;;;;;;8.90;2.60;;;19.50;96.70;;;;;;4910518;29;20047;-76
2021/09/20 06:33:35;;;;;;;5.95;2.50;;;19.50;96.70;;;;;;4906520;29;20044;-75
2021/09/20 06:36:04;;;;;;;7.22;2.05;;;19.60;96.70;;;;;;4908735;29;20048;-76
2021/09/20 06:38:32;;;;;;;10.55;2.22;;;19.60;96.70;;;;;;4907429;29;20119;-76
2021/09/20 06:41:00;;;;;;;9.10;1.73;;;19.70;96.70;;;;;;4903866;29;20047;-76
2021/09/20 06:43:28;;;;;;;6.53;1.70;;;19.60;96.70;;;;;;4899355;29;20059;-76
2021/09/20 06:45:56;;;;;;;7.95;1.75;;;19.60;96.70;;;;;;4906312;29;20079;-76
2021/09/20 06:48:26;;;;;;;5.43;1.70;;;19.60;96.70;;;;;;4904673;29;20284;-75
2021/09/20 06:50:58;;;;;;;6.10;1.70;;;19.70;96.70;;;;;;4903731;29;20127;-76
2021/09/20 06:53:26;;;;;;;7.28;1.70;;;19.70;96.70;;;;;;4902629;29;20437;-76
2021/09/20 06:55:54;;;;;;;8.30;2.40;;;19.70;96.70;;;;;;4907683;29;20036;-76
2021/09/20 06:58:23;;;;;;;10.00;2.45;;;19.70;96.70;;;;;;4904491;29;20040;-74
2021/09/20 07:00:53;;;;;;;11.23;2.10;;;19.70;96.70;;;;;;4905181;29;20065;-76
2021/09/20 07:03:22;;;;;;;14.77;2.53;;;19.70;96.70;;;;;;4893355;29;20048;-74
2021/09/20 07:05:52;;;;;;;24.67;3.25;;;19.80;96.70;;;;;;4906721;29;20084;-74
2021/09/20 07:08:20;;;;;;;9.93;2.75;;;19.90;96.70;;;;;;4911552;29;20036;-74
2021/09/20 07:10:49;;;;;;;12.05;2.00;;;19.90;96.70;;;;;;4924722;29;20071;-74
2021/09/20 07:13:18;;;;;;;10.13;1.98;;;20.00;96.70;;;;;;4917364;29;20044;-73
2021/09/20 07:15:47;;;;;;;8.90;1.63;;;20.00;96.70;;;;;;4906472;29;20044;-74
2021/09/20 07:18:15;;;;;;;8.60;2.78;;;20.00;96.70;;;;;;4892184;29;20048;-74
2021/09/20 07:20:45;;;;;;;12.25;2.85;;;20.10;96.70;;;;;;4890825;29;20055;-74
2021/09/20 07:23:16;;;;;;;11.98;2.42;;;20.10;96.70;;;;;;4917406;29;20055;-73
2021/09/20 07:25:45;;;;;;;10.40;2.47;;;20.20;96.70;;;;;;4908091;29;20052;-74
2021/09/20 07:28:13;;;;;;;10.15;3.13;;;20.20;96.70;;;;;;4922770;29;20056;-74
2021/09/20 07:30:43;;;;;;;10.25;2.95;;;20.30;96.70;;;;;;4908251;29;20494;-74
2021/09/20 07:33:12;;;;;;;9.63;2.53;;;20.40;96.70;;;;;;4909994;29;20051;-74
2021/09/20 07:35:41;;;;;;;11.82;2.20;;;20.40;96.70;;;;;;4907504;29;20489;-74
2021/09/20 07:38:09;;;;;;;7.97;2.67;;;20.40;96.70;;;;;;4924884;29;20052;-74
2021/09/20 07:40:39;;;;;;;6.88;1.80;;;20.40;96.70;;;;;;4908845;29;20047;-74
2021/09/20 07:43:07;;;;;;;5.60;1.88;;;20.50;96.70;;;;;;4914245;29;20100;-76
2021/09/20 07:45:36;;;;;;;4.93;1.55;;;20.70;96.70;;;;;;4910101;29;20454;-76
2021/09/20 07:48:04;;;;;;;5.80;1.75;;;20.80;96.70;;;;;;4919929;29;20418;-76
2021/09/20 07:50:32;;;;;;;5.93;1.90;;;20.90;96.70;;;;;;4907350;29;20044;-74
2021/09/20 07:53:01;;;;;;;8.20;2.33;;;20.90;96.70;;;;;;4908796;29;20513;-73
2021/09/20 07:55:34;;;;;;;5.50;1.63;;;21.00;96.70;;;;;;4908697;29;20056;-73
2021/09/20 07:58:05;;;;;;;8.15;1.90;;;21.00;96.70;;;;;;4913373;29;20115;-74
2021/09/20 08:00:35;;;;;;;7.78;1.90;;;21.10;96.70;;;;;;4904186;29;20088;-74
2021/09/20 08:03:09;;;;;;;7.38;1.85;;;21.20;96.70;;;;;;4909007;29;20107;-74
2021/09/20 08:05:42;;;;;;;6.13;1.85;;;21.20;96.70;;;;;;4894618;29;20151;-75
2021/09/20 08:08:11;;;;;;;6.40;1.73;;;21.30;96.70;;;;;;4907990;29;20040;-74
2021/09/20 08:10:39;;;;;;;6.47;1.80;;;21.30;96.70;;;;;;4908437;29;20055;-74
2021/09/20 08:13:10;;;;;;;8.07;2.03;;;21.40;96.70;;;;;;4908289;29;20048;-74
2021/09/20 08:15:39;;;;;;;7.55;1.60;;;21.50;96.70;;;;;;4904581;29;20071;-75
2021/09/20 08:18:08;;;;;;;7.15;1.23;;;21.60;96.70;;;;;;4923770;29;20523;-76
2021/09/20 08:20:37;;;;;;;7.18;1.45;;;21.60;96.70;;;;;;4908301;29;20092;-75
2021/09/20 08:23:05;;;;;;;7.75;1.23;;;21.70;96.70;;;;;;4917946;29;20414;-74
2021/09/20 08:25:34;;;;;;;8.90;1.60;;;21.70;96.70;;;;;;4911853;29;20143;-75
2021/09/20 08:28:02;;;;;;;7.25;1.55;;;21.80;96.70;;;;;;4891955;29;20059;-74
2021/09/20 08:30:32;;;;;;;10.75;2.13;;;21.90;96.70;;;;;;4909564;29;20036;-74
2021/09/20 08:33:01;;;;;;;8.05;1.50;;;22.00;96.70;;;;;;4918683;29;20112;-78
2021/09/20 08:35:30;;;;;;;8.70;1.35;;;22.10;96.70;;;;;;4911160;29;20044;-75
2021/09/20 08:37:58;;;;;;;6.82;1.25;;;22.10;96.70;;;;;;4908196;29;20048;-75
2021/09/20 08:40:28;;;;;;;7.18;1.42;;;22.20;96.70;;;;;;4922657;29;20048;-74
2021/09/20 08:42:57;;;;;;;7.72;1.45;;;22.30;96.70;;;;;;4919810;29;20427;-75
2021/09/20 08:45:27;;;;;;;7.32;1.42;;;22.20;96.70;;;;;;4907073;29;20054;-74
2021/09/20 08:47:58;;;;;;;9.23;1.58;;;22.30;96.70;;;;;;4921978;29;20054;-75
2021/09/20 08:50:29;;;;;;;7.13;1.60;;;22.40;96.70;;;;;;4915442;29;20048;-74
2021/09/20 08:52:57;;;;;;;10.98;1.95;;;22.40;96.70;;;;;;4907614;29;20062;-74
2021/09/20 08:55:25;;;;;;;9.68;1.63;;;22.50;96.70;;;;;;4919280;29;20510;-75
2021/09/20 08:57:54;;;;;;;9.98;2.22;;;22.60;96.70;;;;;;4925353;29;20071;-74
2021/09/20 09:00:22;;;;;;;10.82;1.90;;;22.60;96.70;;;;;;4908444;29;20136;-74
2021/09/20 09:02:51;;;;;;;8.75;2.38;;;22.60;96.70;;;;;;4909828;29;20052;-77
2021/09/20 09:05:22;;;;;;;12.25;2.10;;;22.60;96.70;;;;;;4907489;29;20594;-76
2021/09/20 09:08:17;;;;;;;8.40;1.88;;;22.60;96.70;;;;;;4914183;29;20144;-76
2021/09/20 09:10:58;;;;;;;6.57;1.75;;;22.80;96.70;;;;;;4889374;29;20057;-78
2021/09/20 09:13:34;;;;;;;10.88;2.30;;;22.90;96.70;;;;;;4873571;29;20163;-78
2021/09/20 09:16:16;;;;;;;8.32;2.83;;;23.00;96.70;;;;;;4886214;29;20059;-75
2021/09/20 09:19:05;;;;;;;10.13;3.30;;;23.20;96.70;;;;;;4885720;29;20057;-76
2021/09/20 09:21:37;;;;;;;12.02;2.92;;;23.30;96.70;;;;;;4887866;29;20056;-75
2021/09/20 09:24:08;;;;;;;8.85;2.38;;;23.60;96.70;;;;;;4887168;29;20578;-76
2021/09/20 09:26:38;;;;;;;10.00;2.05;;;23.70;96.70;;;;;;4888386;29;20092;-76
2021/09/20 09:29:08;;;;;;;6.72;2.00;;;24.00;96.70;;;;;;4887455;29;20415;-76
2021/09/20 09:31:38;;;;;;;11.98;1.90;;;24.00;96.70;;;;;;4885807;29;20523;-76
2021/09/20 09:34:16;;;;;;;6.78;1.60;;;24.10;96.70;;;;;;4886649;29;20127;-76
2021/09/20 09:36:46;;;;;;;5.20;1.20;;;24.00;96.70;;;;;;4905448;29;20040;-76
2021/09/20 09:39:26;;;;;;;10.02;1.70;;;23.80;96.70;;;;;;4903579;29;20470;-76
2021/09/20 09:41:56;;;;;;;2.65;1.23;;;23.90;96.70;;;;;;4924899;29;20075;-76
2021/09/20 09:44:28;;;;;;;7.45;1.95;;;24.10;96.70;;;;;;4887551;29;20075;-76
2021/09/20 09:46:57;;;;;;;5.80;1.30;;;24.20;96.70;;;;;;4901421;29;20048;-76
2021/09/20 09:49:27;;;;;;;4.78;1.15;;;24.30;96.70;;;;;;4905045;29;20127;-76
2021/09/20 09:52:00;;;;;;;6.40;1.50;;;24.10;96.70;;;;;;4919110;29;20300;-76
2021/09/20 09:54:30;;;;;;;4.80;0.80;;;24.10;96.70;;;;;;4903598;29;20059;-76
2021/09/20 09:57:17;;;;;;;5.47;1.50;;;24.20;96.70;;;;;;4909928;29;20067;-76
2021/09/20 09:59:55;;;;;;;6.15;0.82;;;24.30;96.70;;;;;;4904598;29;20241;-76
2021/09/20 10:02:27;;;;;;;4.35;0.85;;;24.40;96.70;;;;;;4902995;29;20040;-76
2021/09/20 10:04:59;;;;;;;7.20;1.20;;;24.50;96.70;;;;;;4924196;29;20099;-76
2021/09/20 10:07:32;;;;;;;8.15;1.50;;;24.60;96.70;;;;;;4925698;29;20056;-76
2021/09/20 10:10:03;;;;;;;4.40;0.98;;;24.60;96.70;;;;;;4910006;29;20063;-77
2021/09/20 10:12:32;;;;;;;8.43;1.55;;;24.70;96.70;;;;;;4906676;29;20438;-82
2021/09/20 10:15:03;;;;;;;6.25;0.90;;;24.60;96.70;;;;;;4903127;29;20147;-79
2021/09/20 10:17:32;;;;;;;5.88;1.48;;;24.70;96.70;;;;;;4906430;29;20051;-79
2021/09/20 10:20:01;;;;;;;4.78;0.90;;;24.70;96.70;;;;;;4903758;29;20112;-82
2021/09/20 10:22:31;;;;;;;4.72;1.10;;;24.90;96.70;;;;;;4923917;29;20040;-80
2021/09/20 10:25:03;;;;;;;2.33;0.60;;;25.00;96.70;;;;;;4906943;29;20135;-81
2021/09/20 10:27:42;;;;;;;4.37;0.90;;;25.00;96.70;;;;;;5162476;27;20114;-82
2021/09/20 10:30:13;;;;;;;4.28;1.00;;;25.10;96.70;;;;;;5132177;27;20439;-84
2021/09/20 10:32:49;;;;;;;4.32;0.93;;;25.20;96.70;;;;;;5136678;27;20153;-83
2021/09/20 10:35:33;;;;;;;7.78;1.38;;;25.30;96.70;;;;;;5137970;27;20047;-81
2021/09/20 10:38:04;;;;;;;4.95;0.82;;;25.30;96.70;;;;;;5132514;27;20047;-80
2021/09/20 10:40:33;;;;;;;5.57;1.08;;;25.30;96.70;;;;;;5129909;27;20050;-77
2021/09/20 10:43:07;;;;;;;10.35;0.80;;;25.40;96.70;;;;;;5136832;27;20053;-78
2021/09/20 10:45:46;;;;;;;5.65;0.95;;;25.50;96.70;;;;;;5135069;27;20039;-78
2021/09/20 10:48:30;;;;;;;5.28;0.70;;;25.60;96.70;;;;;;5131713;27;20096;-77
2021/09/20 10:51:02;;;;;;;2.72;0.80;;;25.50;96.70;;;;;;5140009;27;20125;-78
2021/09/20 10:53:32;;;;;;;3.92;0.82;;;25.50;96.70;;;;;;5132683;27;20555;-80
2021/09/20 10:56:22;;;;;;;2.88;0.50;;;25.50;96.70;;;;;;5140588;27;20046;-77
2021/09/20 10:59:18;;;;;;;3.45;0.60;;;25.60;96.70;;;;;;5127091;27;20059;-79
2021/09/20 11:02:04;;;;;;;4.80;0.82;;;25.40;96.70;;;;;;5138802;27;20054;-78
2021/09/20 11:04:36;;;;;;;4.22;0.85;;;25.60;96.70;;;;;;5131259;27;20587;-78
2021/09/20 11:07:18;;;;;;;4.45;0.80;;;25.50;96.70;;;;;;5139883;27;20504;-78
2021/09/20 11:09:52;;;;;;;4.32;0.70;;;25.60;96.70;;;;;;5123985;27;20491;-79
2021/09/20 11:12:23;;;;;;;3.67;0.98;;;25.50;96.70;;;;;;5138263;27;20035;-79
2021/09/20 11:15:03;;;;;;;4.45;1.05;;;25.80;96.70;;;;;;5132803;27;20039;-79
2021/09/20 11:17:41;;;;;;;5.50;0.90;;;25.60;96.70;;;;;;5116488;27;20051;-79
2021/09/20 11:20:24;;;;;;;5.03;0.85;;;25.70;96.70;;;;;;5126730;27;20137;-78
2021/09/20 11:23:14;;;;;;;3.40;0.77;;;25.60;96.70;;;;;;5129802;27;20047;-78
2021/09/20 11:26:18;;;;;;;8.68;1.50;;;25.60;96.70;;;;;;5125956;27;20055;-78
2021/09/20 11:28:50;;;;;;;3.75;0.50;;;25.30;96.70;;;;;;5137186;27;20417;-78
2021/09/20 11:31:27;;;;;;;5.93;0.95;;;25.40;96.70;;;;;;5127193;27;20047;-78
2021/09/20 11:33:56;;;;;;;5.90;1.20;;;25.80;96.70;;;;;;5135339;27;20132;-75
2021/09/20 11:36:34;;;;;;;5.03;1.15;;;25.90;96.70;;;;;;5127854;27;20093;-76
2021/09/20 11:39:09;;;;;;;6.13;1.05;;;25.60;96.70;;;;;;5126223;27;20088;-75
2021/09/20 11:41:40;;;;;;;5.57;1.20;;;25.50;96.70;;;;;;5119998;27;20071;-75
2021/09/20 11:44:08;;;;;;;6.30;1.00;;;25.40;96.70;;;;;;5124279;27;20039;-75
2021/09/20 11:46:38;;;;;;;3.42;0.98;;;25.60;96.70;;;;;;5115601;27;20067;-76
2021/09/20 11:49:09;;;;;;;5.38;0.80;;;25.80;96.70;;;;;;5117236;27;20147;-76
2021/09/20 11:51:37;;;;;;;8.32;0.80;;;25.90;96.70;;;;;;5118206;27;20103;-75
2021/09/20 11:54:06;;;;;;;5.65;0.90;;;26.10;96.70;;;;;;5115268;27;20043;-75
2021/09/20 11:56:35;;;;;;;3.22;0.88;;;25.90;96.70;;;;;;5115462;27;20040;-75
2021/09/20 11:59:04;;;;;;;3.85;1.02;;;25.80;96.70;;;;;;5109528;27;20279;-75
2021/09/20 12:01:32;;;;;;;4.00;0.88;;;25.90;96.70;;;;;;5114500;27;20062;-75
2021/09/20 12:04:03;;;;;;;6.93;0.93;;;26.10;96.70;;;;;;5114254;27;20048;-75
2021/09/20 12:06:32;;;;;;;6.75;1.20;;;26.40;96.70;;;;;;5117470;27;20051;-75
2021/09/20 12:09:03;;;;;;;6.18;0.88;;;26.50;96.70;;;;;;5116099;27;20125;-75
2021/09/20 12:11:32;;;;;;;6.63;1.33;;;26.50;96.70;;;;;;5122522;27;20053;-75
2021/09/20 12:14:10;;;;;;;7.63;1.35;;;26.50;96.70;;;;;;5106814;27;20039;-75
2021/09/20 12:16:57;;;;;;;3.55;0.75;;;26.50;96.70;;;;;;5098708;28;20043;-75
2021/09/20 12:19:27;;;;;;;5.35;1.38;;;26.50;96.70;;;;;;5111875;27;20043;-75
2021/09/20 12:22:00;;;;;;;6.18;0.98;;;26.70;96.70;;;;;;5102691;27;20496;-75
2021/09/20 12:24:29;;;;;;;5.93;0.80;;;26.50;96.70;;;;;;5108217;27;20047;-75
2021/09/20 12:27:05;;;;;;;4.10;0.95;;;26.20;96.70;;;;;;5120623;27;20051;-75
2021/09/20 12:29:34;;;;;;;4.63;1.20;;;26.00;96.70;;;;;;5122558;27;20347;-75
2021/09/20 12:32:03;;;;;;;6.80;1.17;;;25.80;96.70;;;;;;5108279;27;20049;-75
2021/09/20 12:34:34;;;;;;;6.93;1.20;;;25.80;96.70;;;;;;5115035;27;20048;-75
2021/09/20 12:37:06;;;;;;;3.63;0.90;;;25.80;96.70;;;;;;5115907;27;20058;-74
2021/09/20 12:39:34;;;;;;;4.82;1.17;;;25.80;96.70;;;;;;5116181;27;20563;-75
2021/09/20 12:42:07;;;;;;;4.20;0.90;;;25.70;96.70;;;;;;5117062;27;20446;-75
2021/09/20 12:44:36;;;;;;;5.03;1.17;;;25.70;96.70;;;;;;5116479;27;20106;-75
2021/09/20 12:47:07;;;;;;;6.10;1.02;;;25.90;96.70;;;;;;5119703;27;20496;-75
2021/09/20 12:49:38;;;;;;;7.00;1.00;;;26.20;96.70;;;;;;5117928;27;20128;-75
2021/09/20 12:52:23;;;;;;;3.70;0.88;;;26.40;96.70;;;;;;5122130;27;20043;-75
2021/09/20 12:55:11;;;;;;;4.90;1.20;;;26.50;96.70;;;;;;5121955;27;20492;-75
2021/09/20 12:57:49;;;;;;;3.92;0.85;;;26.40;96.70;;;;;;5116503;27;20050;-75
2021/09/20 13:00:19;;;;;;;6.88;1.23;;;26.30;96.70;;;;;;5121315;27;20035;-77
2021/09/20 13:02:47;;;;;;;3.85;0.90;;;26.20;96.70;;;;;;5120474;27;20045;-76